sensor_id;sensor_type;location;lat;lon;timestamp;temperature;humidity
19138;DHT22;68178;52.188;5.598;2023-04-25T00:00:20;6.80;99.90
19138;DHT22;68178;52.188;5.598;2023-04-25T00:02:46;6.80;99.90
19138;DHT22;68178;52.188;5.598;2023-04-25T00:05:12;6.80;99.90
19138;DHT22;68178;52.188;5.598;2023-04-25T00:07:41;6.80;99.90
19138;DHT22;68178;52.188;5.598;2023-04-25T00:10:08;6.70;99.90
19138;DHT22;68178;52.188;5.598;2023-04-25T00:12:34;6.60;99.90
19138;DHT22;68178;52.188;5.598;2023-04-25T00:15:01;6.60;99.90
19138;DHT22;68178;52.188;5.598;2023-04-25T00:17:27;6.60;99.90
19138;DHT22;68178;52.188;5.598;2023-04-25T00:19:53;6.60;99.90
19138;DHT22;68178;52.188;5.598;2023-04-25T00:22:18;6.60;99.90
19138;DHT22;68178;52.188;5.598;2023-04-25T00:24:44;6.60;99.90
19138;DHT22;68178;52.188;5.598;2023-04-25T00:27:09;6.70;99.90
19138;DHT22;68178;52.188;5.598;2023-04-25T00:29:35;6.70;99.90
19138;DHT22;68178;52.188;5.598;2023-04-25T00:32:01;6.70;99.90
19138;DHT22;68178;52.188;5.598;2023-04-25T00:34:26;6.80;99.90
19138;DHT22;68178;52.188;5.598;2023-04-25T00:36:55;6.80;99.90
19138;DHT22;68178;52.188;5.598;2023-04-25T00:39:20;6.90;99.90
19138;DHT22;68178;52.188;5.598;2023-04-25T00:41:46;6.80;99.90
19138;DHT22;68178;52.188;5.598;2023-04-25T00:44:15;6.80;99.90
19138;DHT22;68178;52.188;5.598;2023-04-25T00:46:42;6.80;99.90
19138;DHT22;68178;52.188;5.598;2023-04-25T00:49:08;6.70;99.90
19138;DHT22;68178;52.188;5.598;2023-04-25T00:51:34;6.60;99.90
19138;DHT22;68178;52.188;5.598;2023-04-25T00:54:00;6.40;99.90
19138;DHT22;68178;52.188;5.598;2023-04-25T00:56:26;6.50;99.90
19138;DHT22;68178;52.188;5.598;2023-04-25T00:58:53;6.40;99.90
19138;DHT22;68178;52.188;5.598;2023-04-25T01:01:21;6.30;99.90
19138;DHT22;68178;52.188;5.598;2023-04-25T01:03:48;6.20;99.90
19138;DHT22;68178;52.188;5.598;2023-04-25T01:06:15;6.20;99.90
19138;DHT22;68178;52.188;5.598;2023-04-25T01:08:41;6.20;99.90
19138;DHT22;68178;52.188;5.598;2023-04-25T01:11:07;6.20;99.90
19138;DHT22;68178;52.188;5.598;2023-04-25T01:13:33;6.30;99.90
19138;DHT22;68178;52.188;5.598;2023-04-25T01:15:59;6.30;99.90
19138;DHT22;68178;52.188;5.598;2023-04-25T01:18:25;6.50;99.90
19138;DHT22;68178;52.188;5.598;2023-04-25T01:20:52;6.50;99.90
19138;DHT22;68178;52.188;5.598;2023-04-25T01:23:18;6.50;99.90
19138;DHT22;68178;52.188;5.598;2023-04-25T01:25:45;6.60;99.90
19138;DHT22;68178;52.188;5.598;2023-04-25T01:28:10;6.60;99.90
19138;DHT22;68178;52.188;5.598;2023-04-25T01:30:36;6.60;99.90
19138;DHT22;68178;52.188;5.598;2023-04-25T01:33:03;6.60;99.90
19138;DHT22;68178;52.188;5.598;2023-04-25T01:35:30;6.50;99.90
19138;DHT22;68178;52.188;5.598;2023-04-25T01:37:55;6.40;99.90
19138;DHT22;68178;52.188;5.598;2023-04-25T01:40:21;6.30;99.90
19138;DHT22;68178;52.188;5.598;2023-04-25T01:42:48;6.20;99.90
19138;DHT22;68178;52.188;5.598;2023-04-25T01:45:22;6.20;99.90
19138;DHT22;68178;52.188;5.598;2023-04-25T01:47:48;6.20;99.90
19138;DHT22;68178;52.188;5.598;2023-04-25T01:50:18;6.20;99.90
19138;DHT22;68178;52.188;5.598;2023-04-25T01:52:44;6.10;99.90
19138;DHT22;68178;52.188;5.598;2023-04-25T01:55:10;6.10;99.90
19138;DHT22;68178;52.188;5.598;2023-04-25T01:57:35;6.00;99.90
19138;DHT22;68178;52.188;5.598;2023-04-25T02:00:03;6.00;99.90
19138;DHT22;68178;52.188;5.598;2023-04-25T02:02:29;5.90;99.90
19138;DHT22;68178;52.188;5.598;2023-04-25T02:04:55;5.90;99.90
19138;DHT22;68178;52.188;5.598;2023-04-25T02:07:21;5.90;99.90
19138;DHT22;68178;52.188;5.598;2023-04-25T02:09:47;5.80;99.90
19138;DHT22;68178;52.188;5.598;2023-04-25T02:12:12;5.70;99.90
19138;DHT22;68178;52.188;5.598;2023-04-25T02:14:38;5.70;99.90
19138;DHT22;68178;52.188;5.598;2023-04-25T02:17:03;5.70;99.90
19138;DHT22;68178;52.188;5.598;2023-04-25T02:19:29;5.60;99.90
19138;DHT22;68178;52.188;5.598;2023-04-25T02:21:57;5.60;99.90
19138;DHT22;68178;52.188;5.598;2023-04-25T02:24:23;5.50;99.90
19138;DHT22;68178;52.188;5.598;2023-04-25T02:26:49;5.30;99.90
19138;DHT22;68178;52.188;5.598;2023-04-25T02:29:15;5.40;99.90
19138;DHT22;68178;52.188;5.598;2023-04-25T02:31:41;5.30;99.90
19138;DHT22;68178;52.188;5.598;2023-04-25T02:34:06;5.30;99.90
19138;DHT22;68178;52.188;5.598;2023-04-25T02:36:32;5.20;99.90
19138;DHT22;68178;52.188;5.598;2023-04-25T02:39:00;5.20;99.90
19138;DHT22;68178;52.188;5.598;2023-04-25T02:41:26;5.10;99.90
19138;DHT22;68178;52.188;5.598;2023-04-25T02:43:51;5.10;99.90
19138;DHT22;68178;52.188;5.598;2023-04-25T02:46:17;5.40;99.90
19138;DHT22;68178;52.188;5.598;2023-04-25T02:48:43;5.00;99.90
19138;DHT22;68178;52.188;5.598;2023-04-25T02:51:09;5.10;99.90
19138;DHT22;68178;52.188;5.598;2023-04-25T02:53:40;5.30;99.90
19138;DHT22;68178;52.188;5.598;2023-04-25T02:56:06;5.30;99.90
19138;DHT22;68178;52.188;5.598;2023-04-25T02:58:32;5.30;99.90
19138;DHT22;68178;52.188;5.598;2023-04-25T03:00:57;5.50;99.90
19138;DHT22;68178;52.188;5.598;2023-04-25T03:03:22;5.70;99.90
19138;DHT22;68178;52.188;5.598;2023-04-25T03:05:52;5.70;99.90
19138;DHT22;68178;52.188;5.598;2023-04-25T03:08:18;5.70;99.90
19138;DHT22;68178;52.188;5.598;2023-04-25T03:10:44;5.70;99.90
19138;DHT22;68178;52.188;5.598;2023-04-25T03:13:10;5.60;99.90
19138;DHT22;68178;52.188;5.598;2023-04-25T03:15:36;5.50;99.90
19138;DHT22;68178;52.188;5.598;2023-04-25T03:18:02;5.50;99.90
19138;DHT22;68178;52.188;5.598;2023-04-25T03:20:28;5.50;99.90
19138;DHT22;68178;52.188;5.598;2023-04-25T03:22:53;5.50;99.90
19138;DHT22;68178;52.188;5.598;2023-04-25T03:25:19;5.40;99.90
19138;DHT22;68178;52.188;5.598;2023-04-25T03:27:45;5.40;99.90
19138;DHT22;68178;52.188;5.598;2023-04-25T03:30:11;5.30;99.90
19138;DHT22;68178;52.188;5.598;2023-04-25T03:32:36;5.20;99.90
19138;DHT22;68178;52.188;5.598;2023-04-25T03:35:02;5.20;99.90
19138;DHT22;68178;52.188;5.598;2023-04-25T03:37:28;5.10;99.90
19138;DHT22;68178;52.188;5.598;2023-04-25T03:39:54;5.20;99.90
19138;DHT22;68178;52.188;5.598;2023-04-25T03:42:19;5.20;99.90
19138;DHT22;68178;52.188;5.598;2023-04-25T03:44:48;5.30;99.90
19138;DHT22;68178;52.188;5.598;2023-04-25T03:47:13;5.50;99.90
19138;DHT22;68178;52.188;5.598;2023-04-25T03:49:39;5.60;99.90
19138;DHT22;68178;52.188;5.598;2023-04-25T03:52:04;5.70;99.90
19138;DHT22;68178;52.188;5.598;2023-04-25T03:54:30;5.80;99.90
19138;DHT22;68178;52.188;5.598;2023-04-25T03:56:55;5.80;99.90
19138;DHT22;68178;52.188;5.598;2023-04-25T03:59:21;5.80;99.90
19138;DHT22;68178;52.188;5.598;2023-04-25T04:01:47;5.80;99.90
19138;DHT22;68178;52.188;5.598;2023-04-25T04:04:12;5.80;99.90
19138;DHT22;68178;52.188;5.598;2023-04-25T04:06:38;5.70;99.90
19138;DHT22;68178;52.188;5.598;2023-04-25T04:09:05;5.70;99.90
19138;DHT22;68178;52.188;5.598;2023-04-25T04:11:34;5.70;99.90
19138;DHT22;68178;52.188;5.598;2023-04-25T04:14:02;5.70;99.90
19138;DHT22;68178;52.188;5.598;2023-04-25T04:16:27;5.60;99.90
19138;DHT22;68178;52.188;5.598;2023-04-25T04:18:56;5.60;99.90
19138;DHT22;68178;52.188;5.598;2023-04-25T04:21:21;5.50;99.90
19138;DHT22;68178;52.188;5.598;2023-04-25T04:23:47;5.50;99.90
19138;DHT22;68178;52.188;5.598;2023-04-25T04:26:20;5.50;99.90
19138;DHT22;68178;52.188;5.598;2023-04-25T04:28:51;5.50;99.90
19138;DHT22;68178;52.188;5.598;2023-04-25T04:31:19;5.50;99.90
19138;DHT22;68178;52.188;5.598;2023-04-25T04:33:45;5.70;99.90
19138;DHT22;68178;52.188;5.598;2023-04-25T04:36:11;5.80;99.90
19138;DHT22;68178;52.188;5.598;2023-04-25T04:38:37;5.90;99.90
19138;DHT22;68178;52.188;5.598;2023-04-25T04:41:03;5.90;99.90
19138;DHT22;68178;52.188;5.598;2023-04-25T04:43:28;6.00;99.90
19138;DHT22;68178;52.188;5.598;2023-04-25T04:45:55;6.00;99.90
19138;DHT22;68178;52.188;5.598;2023-04-25T04:48:22;6.10;99.90
19138;DHT22;68178;52.188;5.598;2023-04-25T04:50:47;6.10;99.90
19138;DHT22;68178;52.188;5.598;2023-04-25T04:53:13;6.10;99.90
19138;DHT22;68178;52.188;5.598;2023-04-25T04:55:39;6.20;99.90
19138;DHT22;68178;52.188;5.598;2023-04-25T04:58:06;6.20;99.90
19138;DHT22;68178;52.188;5.598;2023-04-25T05:00:32;6.30;99.90
19138;DHT22;68178;52.188;5.598;2023-04-25T05:02:58;6.40;99.90
19138;DHT22;68178;52.188;5.598;2023-04-25T05:05:24;6.50;99.90
19138;DHT22;68178;52.188;5.598;2023-04-25T05:07:50;6.50;99.90
19138;DHT22;68178;52.188;5.598;2023-04-25T05:10:19;6.50;99.90
19138;DHT22;68178;52.188;5.598;2023-04-25T05:12:44;6.60;99.90
19138;DHT22;68178;52.188;5.598;2023-04-25T05:15:10;6.60;99.90
19138;DHT22;68178;52.188;5.598;2023-04-25T05:17:36;6.70;99.90
19138;DHT22;68178;52.188;5.598;2023-04-25T05:20:02;6.80;99.90
19138;DHT22;68178;52.188;5.598;2023-04-25T05:22:28;6.70;99.90
19138;DHT22;68178;52.188;5.598;2023-04-25T05:24:53;6.70;99.90
19138;DHT22;68178;52.188;5.598;2023-04-25T05:27:20;6.80;99.90
19138;DHT22;68178;52.188;5.598;2023-04-25T05:29:45;6.80;99.90
19138;DHT22;68178;52.188;5.598;2023-04-25T05:32:11;6.90;99.90
19138;DHT22;68178;52.188;5.598;2023-04-25T05:34:36;6.90;99.90
19138;DHT22;68178;52.188;5.598;2023-04-25T05:37:02;7.10;99.90
19138;DHT22;68178;52.188;5.598;2023-04-25T05:39:29;7.00;99.90
19138;DHT22;68178;52.188;5.598;2023-04-25T05:41:54;7.10;99.90
19138;DHT22;68178;52.188;5.598;2023-04-25T05:44:20;7.20;99.90
19138;DHT22;68178;52.188;5.598;2023-04-25T05:46:46;7.30;99.90
19138;DHT22;68178;52.188;5.598;2023-04-25T05:49:11;7.40;99.90
19138;DHT22;68178;52.188;5.598;2023-04-25T05:51:37;7.40;99.90
19138;DHT22;68178;52.188;5.598;2023-04-25T05:54:03;7.60;99.90
19138;DHT22;68178;52.188;5.598;2023-04-25T05:56:28;7.60;99.90
19138;DHT22;68178;52.188;5.598;2023-04-25T05:58:54;7.80;99.90
19138;DHT22;68178;52.188;5.598;2023-04-25T06:01:21;8.00;99.90
19138;DHT22;68178;52.188;5.598;2023-04-25T06:03:46;8.00;99.90
19138;DHT22;68178;52.188;5.598;2023-04-25T06:06:12;8.00;99.90
19138;DHT22;68178;52.188;5.598;2023-04-25T06:08:37;8.10;99.90
19138;DHT22;68178;52.188;5.598;2023-04-25T06:11:04;8.20;99.90
19138;DHT22;68178;52.188;5.598;2023-04-25T06:13:30;8.40;99.90
19138;DHT22;68178;52.188;5.598;2023-04-25T06:15:55;8.30;99.90
19138;DHT22;68178;52.188;5.598;2023-04-25T06:18:21;8.20;99.90
19138;DHT22;68178;52.188;5.598;2023-04-25T06:20:46;8.10;99.90
19138;DHT22;68178;52.188;5.598;2023-04-25T06:23:12;8.00;99.90
19138;DHT22;68178;52.188;5.598;2023-04-25T06:25:37;7.80;99.90
19138;DHT22;68178;52.188;5.598;2023-04-25T06:28:03;7.90;99.90
19138;DHT22;68178;52.188;5.598;2023-04-25T06:30:28;7.80;99.90
19138;DHT22;68178;52.188;5.598;2023-04-25T06:32:55;8.00;99.90
19138;DHT22;68178;52.188;5.598;2023-04-25T06:35:20;8.60;99.90
19138;DHT22;68178;52.188;5.598;2023-04-25T06:37:49;9.00;99.90
19138;DHT22;68178;52.188;5.598;2023-04-25T06:40:15;9.40;99.90
19138;DHT22;68178;52.188;5.598;2023-04-25T06:42:42;9.80;99.90
19138;DHT22;68178;52.188;5.598;2023-04-25T06:45:10;10.20;99.90
19138;DHT22;68178;52.188;5.598;2023-04-25T06:47:36;10.60;99.90
19138;DHT22;68178;52.188;5.598;2023-04-25T06:50:01;11.00;99.90
19138;DHT22;68178;52.188;5.598;2023-04-25T06:52:30;11.30;99.90
19138;DHT22;68178;52.188;5.598;2023-04-25T06:54:55;11.30;99.90
19138;DHT22;68178;52.188;5.598;2023-04-25T06:57:24;11.00;99.90
19138;DHT22;68178;52.188;5.598;2023-04-25T06:59:49;10.60;99.90
19138;DHT22;68178;52.188;5.598;2023-04-25T07:02:15;10.30;99.90
19138;DHT22;68178;52.188;5.598;2023-04-25T07:04:40;10.10;99.90
19138;DHT22;68178;52.188;5.598;2023-04-25T07:07:06;9.90;99.90
19138;DHT22;68178;52.188;5.598;2023-04-25T07:09:31;9.70;99.90
19138;DHT22;68178;52.188;5.598;2023-04-25T07:11:59;9.50;99.90
19138;DHT22;68178;52.188;5.598;2023-04-25T07:14:27;9.40;99.90
19138;DHT22;68178;52.188;5.598;2023-04-25T07:16:52;9.40;99.90
19138;DHT22;68178;52.188;5.598;2023-04-25T07:19:18;9.60;99.90
19138;DHT22;68178;52.188;5.598;2023-04-25T07:21:43;9.80;99.90
19138;DHT22;68178;52.188;5.598;2023-04-25T07:24:09;10.50;99.90
19138;DHT22;68178;52.188;5.598;2023-04-25T07:26:34;10.90;99.90
19138;DHT22;68178;52.188;5.598;2023-04-25T07:29:00;11.30;99.90
19138;DHT22;68178;52.188;5.598;2023-04-25T07:31:28;11.70;99.90
19138;DHT22;68178;52.188;5.598;2023-04-25T07:33:54;12.20;99.90
19138;DHT22;68178;52.188;5.598;2023-04-25T07:36:22;12.50;99.90
19138;DHT22;68178;52.188;5.598;2023-04-25T07:38:47;12.40;99.90
19138;DHT22;68178;52.188;5.598;2023-04-25T07:41:13;12.10;99.90
19138;DHT22;68178;52.188;5.598;2023-04-25T07:43:38;12.00;99.90
19138;DHT22;68178;52.188;5.598;2023-04-25T07:46:04;12.00;99.90
19138;DHT22;68178;52.188;5.598;2023-04-25T07:48:32;12.10;99.90
19138;DHT22;68178;52.188;5.598;2023-04-25T07:50:58;12.60;99.90
19138;DHT22;68178;52.188;5.598;2023-04-25T07:53:23;12.70;99.90
19138;DHT22;68178;52.188;5.598;2023-04-25T07:55:50;12.60;99.90
19138;DHT22;68178;52.188;5.598;2023-04-25T07:58:15;12.30;99.90
19138;DHT22;68178;52.188;5.598;2023-04-25T08:00:46;12.30;99.90
19138;DHT22;68178;52.188;5.598;2023-04-25T08:03:12;12.50;99.90
19138;DHT22;68178;52.188;5.598;2023-04-25T08:05:37;12.20;99.90
19138;DHT22;68178;52.188;5.598;2023-04-25T08:08:03;12.00;99.90
19138;DHT22;68178;52.188;5.598;2023-04-25T08:10:29;11.80;99.90
19138;DHT22;68178;52.188;5.598;2023-04-25T08:12:55;11.70;99.90
19138;DHT22;68178;52.188;5.598;2023-04-25T08:15:21;11.50;99.90
19138;DHT22;68178;52.188;5.598;2023-04-25T08:17:46;11.20;99.90
19138;DHT22;68178;52.188;5.598;2023-04-25T08:20:12;10.90;99.90
19138;DHT22;68178;52.188;5.598;2023-04-25T08:22:37;10.80;99.90
19138;DHT22;68178;52.188;5.598;2023-04-25T08:25:03;10.80;99.90
19138;DHT22;68178;52.188;5.598;2023-04-25T08:27:29;10.70;99.90
19138;DHT22;68178;52.188;5.598;2023-04-25T08:29:55;10.50;99.90
19138;DHT22;68178;52.188;5.598;2023-04-25T08:32:21;10.50;99.90
19138;DHT22;68178;52.188;5.598;2023-04-25T08:34:46;10.40;99.90
19138;DHT22;68178;52.188;5.598;2023-04-25T08:37:12;10.80;99.90
19138;DHT22;68178;52.188;5.598;2023-04-25T08:39:38;11.30;99.90
19138;DHT22;68178;52.188;5.598;2023-04-25T08:42:06;11.60;99.90
19138;DHT22;68178;52.188;5.598;2023-04-25T08:44:35;12.00;99.90
19138;DHT22;68178;52.188;5.598;2023-04-25T08:47:04;12.40;99.90
19138;DHT22;68178;52.188;5.598;2023-04-25T08:49:33;12.70;99.90
19138;DHT22;68178;52.188;5.598;2023-04-25T08:52:01;12.80;99.90
19138;DHT22;68178;52.188;5.598;2023-04-25T08:54:28;13.20;99.90
19138;DHT22;68178;52.188;5.598;2023-04-25T08:56:55;13.50;99.90
19138;DHT22;68178;52.188;5.598;2023-04-25T08:59:23;13.70;99.90
19138;DHT22;68178;52.188;5.598;2023-04-25T09:01:49;14.10;99.90
19138;DHT22;68178;52.188;5.598;2023-04-25T09:04:15;14.20;99.90
19138;DHT22;68178;52.188;5.598;2023-04-25T09:06:41;14.40;99.90
19138;DHT22;68178;52.188;5.598;2023-04-25T09:09:08;14.50;99.90
19138;DHT22;68178;52.188;5.598;2023-04-25T09:11:36;14.60;99.90
19138;DHT22;68178;52.188;5.598;2023-04-25T09:14:18;14.50;99.90
19138;DHT22;68178;52.188;5.598;2023-04-25T09:17:07;14.60;99.90
19138;DHT22;68178;52.188;5.598;2023-04-25T09:19:36;14.80;99.90
19138;DHT22;68178;52.188;5.598;2023-04-25T09:22:05;14.10;99.90
19138;DHT22;68178;52.188;5.598;2023-04-25T09:27:02;13.40;99.90
19138;DHT22;68178;52.188;5.598;2023-04-25T09:29:32;13.70;99.90
19138;DHT22;68178;52.188;5.598;2023-04-25T09:32:18;13.60;99.90
19138;DHT22;68178;52.188;5.598;2023-04-25T09:34:48;13.70;99.90
19138;DHT22;68178;52.188;5.598;2023-04-25T09:37:26;14.10;99.90
19138;DHT22;68178;52.188;5.598;2023-04-25T09:39:57;14.20;99.90
19138;DHT22;68178;52.188;5.598;2023-04-25T09:42:30;14.10;99.90
19138;DHT22;68178;52.188;5.598;2023-04-25T09:44:58;13.50;99.90
19138;DHT22;68178;52.188;5.598;2023-04-25T09:47:27;13.20;99.90
19138;DHT22;68178;52.188;5.598;2023-04-25T09:49:54;13.30;99.90
19138;DHT22;68178;52.188;5.598;2023-04-25T09:52:22;12.80;99.90
19138;DHT22;68178;52.188;5.598;2023-04-25T09:54:49;12.40;99.90
19138;DHT22;68178;52.188;5.598;2023-04-25T09:59:52;12.40;99.90
19138;DHT22;68178;52.188;5.598;2023-04-25T10:02:19;12.40;99.90
19138;DHT22;68178;52.188;5.598;2023-04-25T10:04:48;12.10;99.90
19138;DHT22;68178;52.188;5.598;2023-04-25T10:07:14;12.40;99.90
19138;DHT22;68178;52.188;5.598;2023-04-25T10:09:41;12.50;99.90
19138;DHT22;68178;52.188;5.598;2023-04-25T10:12:11;12.50;99.90
19138;DHT22;68178;52.188;5.598;2023-04-25T10:14:38;12.70;99.90
19138;DHT22;68178;52.188;5.598;2023-04-25T10:17:04;13.00;99.90
19138;DHT22;68178;52.188;5.598;2023-04-25T10:19:31;13.10;99.90
19138;DHT22;68178;52.188;5.598;2023-04-25T10:22:04;13.10;99.90
19138;DHT22;68178;52.188;5.598;2023-04-25T10:24:31;13.30;99.90
19138;DHT22;68178;52.188;5.598;2023-04-25T10:27:01;13.10;99.90
19138;DHT22;68178;52.188;5.598;2023-04-25T10:29:29;13.80;99.90
19138;DHT22;68178;52.188;5.598;2023-04-25T10:31:55;14.00;99.90
19138;DHT22;68178;52.188;5.598;2023-04-25T10:34:24;14.10;99.90
19138;DHT22;68178;52.188;5.598;2023-04-25T10:36:52;14.60;99.90
19138;DHT22;68178;52.188;5.598;2023-04-25T10:39:28;14.50;99.90
19138;DHT22;68178;52.188;5.598;2023-04-25T10:41:58;14.40;99.90
19138;DHT22;68178;52.188;5.598;2023-04-25T10:44:30;14.50;99.90
19138;DHT22;68178;52.188;5.598;2023-04-25T10:46:56;14.80;99.90
19138;DHT22;68178;52.188;5.598;2023-04-25T10:49:37;15.30;99.90
19138;DHT22;68178;52.188;5.598;2023-04-25T10:52:14;16.00;99.90
19138;DHT22;68178;52.188;5.598;2023-04-25T11:02:31;16.80;99.90
19138;DHT22;68178;52.188;5.598;2023-04-25T11:04:57;17.10;99.90
19138;DHT22;68178;52.188;5.598;2023-04-25T11:07:52;17.30;99.90
19138;DHT22;68178;52.188;5.598;2023-04-25T11:10:18;17.30;99.90
19138;DHT22;68178;52.188;5.598;2023-04-25T11:12:45;17.70;99.50
19138;DHT22;68178;52.188;5.598;2023-04-25T11:15:12;18.30;98.30
19138;DHT22;68178;52.188;5.598;2023-04-25T11:17:38;18.40;99.90
19138;DHT22;68178;52.188;5.598;2023-04-25T11:20:06;18.00;98.50
19138;DHT22;68178;52.188;5.598;2023-04-25T11:22:34;17.00;98.70
19138;DHT22;68178;52.188;5.598;2023-04-25T11:25:05;15.60;99.90
19138;DHT22;68178;52.188;5.598;2023-04-25T11:27:31;13.20;99.90
19138;DHT22;68178;52.188;5.598;2023-04-25T11:29:56;13.10;99.90
19138;DHT22;68178;52.188;5.598;2023-04-25T11:32:23;12.40;99.90
19138;DHT22;68178;52.188;5.598;2023-04-25T11:34:48;12.30;99.90
19138;DHT22;68178;52.188;5.598;2023-04-25T11:37:14;11.70;99.90
19138;DHT22;68178;52.188;5.598;2023-04-25T11:39:44;11.50;99.90
19138;DHT22;68178;52.188;5.598;2023-04-25T11:42:10;11.90;99.90
19138;DHT22;68178;52.188;5.598;2023-04-25T11:44:38;12.60;99.90
19138;DHT22;68178;52.188;5.598;2023-04-25T11:47:03;13.20;99.90
19138;DHT22;68178;52.188;5.598;2023-04-25T11:49:32;13.20;99.90
19138;DHT22;68178;52.188;5.598;2023-04-25T11:51:57;12.60;99.90
19138;DHT22;68178;52.188;5.598;2023-04-25T11:54:23;12.50;99.90
19138;DHT22;68178;52.188;5.598;2023-04-25T11:56:49;12.20;99.90
19138;DHT22;68178;52.188;5.598;2023-04-25T11:59:14;12.30;99.90
19138;DHT22;68178;52.188;5.598;2023-04-25T12:01:48;12.50;99.90
19138;DHT22;68178;52.188;5.598;2023-04-25T12:04:19;12.60;99.90
19138;DHT22;68178;52.188;5.598;2023-04-25T12:06:46;12.60;99.90
19138;DHT22;68178;52.188;5.598;2023-04-25T12:09:13;12.80;99.90
19138;DHT22;68178;52.188;5.598;2023-04-25T12:11:57;13.80;99.90
19138;DHT22;68178;52.188;5.598;2023-04-25T12:14:33;14.80;99.90
19138;DHT22;68178;52.188;5.598;2023-04-25T12:17:01;15.80;99.90
19138;DHT22;68178;52.188;5.598;2023-04-25T12:19:37;16.00;99.90
19138;DHT22;68178;52.188;5.598;2023-04-25T12:22:22;15.40;99.90
19138;DHT22;68178;52.188;5.598;2023-04-25T12:24:48;15.20;99.90
19138;DHT22;68178;52.188;5.598;2023-04-25T12:27:17;14.60;99.90
19138;DHT22;68178;52.188;5.598;2023-04-25T12:29:51;14.40;99.90
19138;DHT22;68178;52.188;5.598;2023-04-25T12:32:17;15.10;99.90
19138;DHT22;68178;52.188;5.598;2023-04-25T12:34:43;15.80;99.90
19138;DHT22;68178;52.188;5.598;2023-04-25T12:37:09;16.80;99.90
19138;DHT22;68178;52.188;5.598;2023-04-25T12:39:34;18.20;96.30
19138;DHT22;68178;52.188;5.598;2023-04-25T12:42:00;18.80;98.50
19138;DHT22;68178;52.188;5.598;2023-04-25T12:44:26;18.70;97.00
19138;DHT22;68178;52.188;5.598;2023-04-25T12:46:52;17.80;94.20
19138;DHT22;68178;52.188;5.598;2023-04-25T12:49:18;16.90;96.80
19138;DHT22;68178;52.188;5.598;2023-04-25T12:51:43;15.90;99.90
19138;DHT22;68178;52.188;5.598;2023-04-25T12:54:09;16.60;99.90
19138;DHT22;68178;52.188;5.598;2023-04-25T12:56:35;18.10;95.80
19138;DHT22;68178;52.188;5.598;2023-04-25T12:59:01;19.10;94.20
19138;DHT22;68178;52.188;5.598;2023-04-25T13:01:28;18.90;93.90
19138;DHT22;68178;52.188;5.598;2023-04-25T13:03:54;19.00;92.90
19138;DHT22;68178;52.188;5.598;2023-04-25T13:06:20;19.30;94.40
19138;DHT22;68178;52.188;5.598;2023-04-25T13:08:46;20.50;91.20
19138;DHT22;68178;52.188;5.598;2023-04-25T13:11:12;20.80;90.80
19138;DHT22;68178;52.188;5.598;2023-04-25T13:13:37;21.30;89.10
19138;DHT22;68178;52.188;5.598;2023-04-25T13:16:04;21.50;88.60
19138;DHT22;68178;52.188;5.598;2023-04-25T13:18:30;20.00;87.00
19138;DHT22;68178;52.188;5.598;2023-04-25T13:20:56;18.40;90.60
19138;DHT22;68178;52.188;5.598;2023-04-25T13:23:22;17.00;93.90
19138;DHT22;68178;52.188;5.598;2023-04-25T13:25:48;16.30;94.70
19138;DHT22;68178;52.188;5.598;2023-04-25T13:28:14;15.50;95.30
19138;DHT22;68178;52.188;5.598;2023-04-25T13:30:40;14.70;96.40
19138;DHT22;68178;52.188;5.598;2023-04-25T13:33:06;14.10;98.60
19138;DHT22;68178;52.188;5.598;2023-04-25T13:35:32;13.70;99.90
19138;DHT22;68178;52.188;5.598;2023-04-25T13:37:58;13.60;99.10
19138;DHT22;68178;52.188;5.598;2023-04-25T13:40:24;13.30;99.90
19138;DHT22;68178;52.188;5.598;2023-04-25T13:42:50;13.20;99.90
19138;DHT22;68178;52.188;5.598;2023-04-25T13:45:16;14.10;99.90
19138;DHT22;68178;52.188;5.598;2023-04-25T13:47:42;14.40;99.90
19138;DHT22;68178;52.188;5.598;2023-04-25T13:50:08;15.00;99.50
19138;DHT22;68178;52.188;5.598;2023-04-25T13:52:33;16.80;96.50
19138;DHT22;68178;52.188;5.598;2023-04-25T13:54:59;18.60;94.20
19138;DHT22;68178;52.188;5.598;2023-04-25T13:57:25;19.30;89.60
19138;DHT22;68178;52.188;5.598;2023-04-25T13:59:51;19.10;92.20
19138;DHT22;68178;52.188;5.598;2023-04-25T14:02:17;20.50;90.50
19138;DHT22;68178;52.188;5.598;2023-04-25T14:04:45;20.90;88.10
19138;DHT22;68178;52.188;5.598;2023-04-25T14:07:10;21.80;87.50
19138;DHT22;68178;52.188;5.598;2023-04-25T14:09:36;20.90;85.20
19138;DHT22;68178;52.188;5.598;2023-04-25T14:12:02;19.70;89.50
19138;DHT22;68178;52.188;5.598;2023-04-25T14:14:28;18.70;90.60
19138;DHT22;68178;52.188;5.598;2023-04-25T14:16:54;17.00;94.20
19138;DHT22;68178;52.188;5.598;2023-04-25T14:19:20;15.50;97.80
19138;DHT22;68178;52.188;5.598;2023-04-25T14:21:46;14.90;99.10
19138;DHT22;68178;52.188;5.598;2023-04-25T14:24:13;14.60;99.90
19138;DHT22;68178;52.188;5.598;2023-04-25T14:26:41;15.00;99.90
19138;DHT22;68178;52.188;5.598;2023-04-25T14:29:09;15.10;99.50
19138;DHT22;68178;52.188;5.598;2023-04-25T14:31:38;14.50;99.90
19138;DHT22;68178;52.188;5.598;2023-04-25T14:34:07;14.10;98.70
19138;DHT22;68178;52.188;5.598;2023-04-25T14:36:33;13.40;99.90
19138;DHT22;68178;52.188;5.598;2023-04-25T14:38:59;13.10;99.90
19138;DHT22;68178;52.188;5.598;2023-04-25T14:41:25;12.80;99.90
19138;DHT22;68178;52.188;5.598;2023-04-25T14:43:57;12.60;99.90
19138;DHT22;68178;52.188;5.598;2023-04-25T14:46:23;12.60;99.90
19138;DHT22;68178;52.188;5.598;2023-04-25T14:48:49;12.20;99.90
19138;DHT22;68178;52.188;5.598;2023-04-25T14:51:14;12.10;99.90
19138;DHT22;68178;52.188;5.598;2023-04-25T14:53:40;12.20;99.90
19138;DHT22;68178;52.188;5.598;2023-04-25T14:56:06;12.30;99.90
19138;DHT22;68178;52.188;5.598;2023-04-25T14:58:32;12.30;99.90
19138;DHT22;68178;52.188;5.598;2023-04-25T15:00:59;12.50;99.90
19138;DHT22;68178;52.188;5.598;2023-04-25T15:03:24;13.00;99.90
19138;DHT22;68178;52.188;5.598;2023-04-25T15:05:50;13.30;99.90
19138;DHT22;68178;52.188;5.598;2023-04-25T15:08:16;13.40;99.90
19138;DHT22;68178;52.188;5.598;2023-04-25T15:10:41;13.50;99.90
19138;DHT22;68178;52.188;5.598;2023-04-25T15:13:07;14.60;99.90
19138;DHT22;68178;52.188;5.598;2023-04-25T15:15:33;15.60;98.90
19138;DHT22;68178;52.188;5.598;2023-04-25T15:17:58;16.70;95.50
19138;DHT22;68178;52.188;5.598;2023-04-25T15:20:24;17.50;94.50
19138;DHT22;68178;52.188;5.598;2023-04-25T15:22:50;18.20;93.70
19138;DHT22;68178;52.188;5.598;2023-04-25T15:25:16;17.90;92.60
19138;DHT22;68178;52.188;5.598;2023-04-25T15:27:45;17.50;92.00
19138;DHT22;68178;52.188;5.598;2023-04-25T15:30:14;16.80;91.40
19138;DHT22;68178;52.188;5.598;2023-04-25T15:32:46;16.10;93.40
19138;DHT22;68178;52.188;5.598;2023-04-25T15:35:13;15.90;93.60
19138;DHT22;68178;52.188;5.598;2023-04-25T15:37:39;15.70;93.50
19138;DHT22;68178;52.188;5.598;2023-04-25T15:40:11;15.40;94.30
19138;DHT22;68178;52.188;5.598;2023-04-25T15:42:45;14.90;94.20
19138;DHT22;68178;52.188;5.598;2023-04-25T15:45:23;14.40;94.70
19138;DHT22;68178;52.188;5.598;2023-04-25T15:47:54;13.80;97.50